Nearby METAR Data
EGNX - East Midlands, United Kingdom
Distance from station: SSE 24mi, 39km
Updated: 20/09/2018 17:50
Mostly Cloudy
Mostly Cloudy
 Wind from S
Wind: S 24 mph , 39 km/h
Temperature: 18°C
Dew Point: 15°C
Humidity: 83%
Barometer: 1000 hPa
Clouds: Mostly Cloudy
Visibility: 6 miles , 10 km
Cloud details: Mostly Cloudy 671 m
2018/09/20 16:50 EGNX 201650Z 19021KT 9999 BKN022 18/15 Q1000
EGCN - Doncaster Sheffi, United Kingdom
Distance from station: NE 31mi, 49km
Updated: 20/09/2018 17:20
Rain, Mostly cloudy
Rain, Mostly cloudy
 Wind from NNW
Wind: NNW 6 mph , 9 km/h
Temperature: 14°C
Dew Point: 14°C
Humidity: 100%
Barometer: 1000 hPa
Summary: Rain
Clouds: Mostly Cloudy
Visibility: 2 miles , 4 km
Cloud details: Few Clouds 30 m
Mostly Cloudy 183 m
2018/09/20 16:20 EGCN 201620Z 33005KT 300V010 3700 RA FEW001 BKN006 14/14 Q1000
 
EGXS - Swinderby Raf, United Kingdom
Distance from station: E 33mi, 54km
Updated: 20/09/2018 16:50
Mostly Cloudy
Mostly Cloudy
 Wind from S
Wind: S 14 mph , 22 km/h, Gust: 28 mph , 44 km/h
Temperature: 18°C
Dew Point: 17°C
Humidity: 94%
Barometer: 1002 hPa
Clouds: Mostly Cloudy
Visibility: 6 miles , 10 km
Cloud details: Partly Cloudy 518 m
Mostly Cloudy 1311 m
2018/09/20 15:50 EGXS 201550Z AUTO 18012G24KT 9999 // SCT017/// BKN043/// 18/17 Q1002
EGCC - Manchester Intl, United Kingdom
Distance from station: WNW 35mi, 56km
Updated: 20/09/2018 17:50
Light rain, Mostly cloudy
Light rain, Mostly cloudy
 Wind from E
Wind: E 5 mph , 7 km/h
Temperature: 12°C
Dew Point: 12°C
Humidity: 100%
Barometer: 998 hPa
Summary: Light Rain
Clouds: Mostly Cloudy
Visibility: 6 miles , 10 km
Cloud details: Few Clouds 152 m
Mostly Cloudy 762 m
2018/09/20 16:50 EGCC 201650Z 08004KT 050V140 9999 6000E -RA FEW005 BKN025 12/12 Q0998
 
EGXP - Scampton Raf, United Kingdom
Distance from station: ENE 40mi, 65km
Updated: 20/09/2018 16:50
Mostly Cloudy
Mostly Cloudy
 Wind from S
Wind: S 18 mph , 30 km/h
Temperature: 18°C
Dew Point: 15°C
Humidity: 83%
Barometer: 1001 hPa
Clouds: Mostly Cloudy
Visibility: 6 miles , 10 km
Cloud details: Mostly Cloudy 853 m
2018/09/20 15:50 EGXP 201550Z AUTO 19016KT 9999 // BKN028/// 18/15 Q1001
EGXW - Waddington Raf, United Kingdom
Distance from station: E 40mi, 65km
Updated: 20/09/2018 16:50
Overcast
Overcast
 Wind from S
Wind: S 24 mph , 39 km/h
Temperature: 18°C
Dew Point: 15°C
Humidity: 83%
Barometer: 1001 hPa
Clouds: Overcast
Visibility: 6 miles , 10 km
Cloud details: Few Clouds 549 m
Overcast 975 m
2018/09/20 15:50 EGXW 201550Z 19021KT 9999 FEW018 OVC032 18/15 Q1001 BLU NOSIG